createdAt,value
2022-08-03T00:00:42.550Z,4.27
2022-08-03T00:03:49.242Z,4.20
2022-08-03T00:06:56.915Z,4.13
2022-08-03T00:10:03.218Z,3.40
2022-08-03T00:13:10.024Z,3.70
2022-08-03T00:16:16.762Z,3.40
2022-08-03T00:19:23.400Z,3.37
2022-08-03T00:22:31.297Z,3.40
2022-08-03T00:25:38.422Z,3.57
2022-08-03T00:28:44.812Z,4.13
2022-08-03T00:31:59.172Z,4.20
2022-08-03T00:35:09.160Z,4.73
2022-08-03T00:38:18.859Z,4.33
2022-08-03T00:41:25.334Z,4.07
2022-08-03T00:44:32.379Z,4.73
2022-08-03T00:47:38.711Z,4.60
2022-08-03T00:50:45.108Z,6.77
2022-08-03T00:53:52.965Z,4.47
2022-08-03T00:57:00.574Z,4.07
2022-08-03T01:00:11.398Z,10.97
2022-08-03T01:03:18.136Z,4.37
2022-08-03T01:06:32.378Z,4.33
2022-08-03T01:10:01.155Z,4.67
2022-08-03T01:14:01.601Z,4.00
2022-08-03T01:16:58.416Z,4.20
2022-08-03T01:20:08.889Z,3.37
2022-08-03T01:23:45.776Z,4.20
2022-08-03T01:27:06.562Z,4.30
2022-08-03T01:30:14.911Z,4.07
2022-08-03T01:33:25.681Z,5.80
2022-08-03T01:36:36.683Z,6.50
2022-08-03T01:39:44.620Z,3.40
2022-08-03T01:42:53.137Z,3.27
2022-08-03T01:46:01.817Z,8.00
2022-08-03T01:49:12.056Z,3.43
2022-08-03T01:52:21.002Z,3.63
2022-08-03T01:55:28.900Z,3.60
2022-08-03T01:58:38.077Z,3.33
2022-08-03T02:02:15.547Z,3.63
2022-08-03T02:05:16.204Z,3.00
2022-08-03T02:08:25.619Z,3.30
2022-08-03T02:11:34.030Z,3.20
2022-08-03T02:14:42.561Z,3.67
2022-08-03T02:17:52.938Z,5.87
2022-08-03T02:21:00.469Z,3.67
2022-08-03T02:24:10.454Z,3.90
2022-08-03T02:27:22.225Z,7.40
2022-08-03T02:30:37.261Z,4.30
2022-08-03T02:33:50.542Z,3.60
2022-08-03T02:37:01.665Z,4.00
2022-08-03T02:40:11.531Z,4.33
2022-08-03T02:43:21.939Z,4.30
2022-08-03T02:46:34.472Z,4.00
2022-08-03T02:49:50.915Z,4.40
2022-08-03T02:52:59.974Z,4.00
2022-08-03T02:56:08.802Z,4.40
2022-08-03T02:59:17.708Z,11.13
2022-08-03T03:02:25.542Z,4.13
2022-08-03T03:05:55.277Z,4.10
2022-08-03T03:09:03.003Z,3.70
2022-08-03T03:12:11.317Z,3.57
2022-08-03T03:15:17.745Z,4.10
2022-08-03T03:18:25.479Z,4.30
2022-08-03T03:21:34.885Z,4.97
2022-08-03T03:24:43.336Z,3.10
2022-08-03T03:27:50.916Z,3.10
2022-08-03T03:30:58.015Z,3.37
2022-08-03T03:34:05.314Z,3.73
2022-08-03T03:37:14.820Z,3.37
2022-08-03T03:40:21.641Z,7.03
2022-08-03T03:43:29.559Z,3.10
2022-08-03T03:46:36.105Z,3.20
2022-08-03T03:49:43.058Z,8.70
2022-08-03T03:52:54.308Z,3.47
2022-08-03T03:56:02.875Z,3.97
2022-08-03T03:59:09.619Z,4.50
2022-08-03T04:02:16.908Z,4.27
2022-08-03T04:05:44.260Z,4.10
2022-08-03T04:09:13.559Z,3.90
2022-08-03T04:12:24.435Z,4.37
2022-08-03T04:15:34.727Z,3.67
2022-08-03T04:18:43.507Z,3.87
2022-08-03T04:21:53.238Z,4.13
2022-08-03T04:25:10.650Z,5.00
2022-08-03T04:28:29.391Z,4.80
2022-08-03T04:31:40.055Z,4.37
2022-08-03T04:34:46.632Z,4.47
2022-08-03T04:37:55.505Z,4.80
2022-08-03T04:41:03.467Z,4.47
2022-08-03T04:44:11.708Z,4.30
2022-08-03T04:47:18.576Z,4.83
2022-08-03T04:50:28.422Z,5.63
2022-08-03T04:53:35.202Z,4.73
2022-08-03T04:56:46.735Z,5.37
2022-08-03T05:00:02.498Z,5.23
2022-08-03T05:03:20.394Z,4.97
2022-08-03T05:06:31.172Z,4.53
2022-08-03T05:09:52.453Z,4.80
2022-08-03T05:13:05.532Z,4.47
2022-08-03T05:16:12.217Z,4.83
2022-08-03T05:19:20.753Z,4.27
2022-08-03T05:22:27.406Z,4.53
2022-08-03T05:25:39.969Z,4.43
2022-08-03T05:28:57.549Z,4.70
2022-08-03T05:32:08.282Z,4.50
2022-08-03T05:35:55.700Z,4.27
2022-08-03T05:38:43.818Z,4.00
2022-08-03T05:41:53.021Z,4.43
2022-08-03T05:45:13.079Z,4.43
2022-08-03T05:48:19.779Z,4.33
2022-08-03T05:51:29.102Z,4.10
2022-08-03T05:54:56.170Z,4.07
2022-08-03T05:58:04.232Z,4.53
2022-08-03T06:01:12.836Z,4.33
2022-08-03T06:04:22.376Z,3.70
2022-08-03T06:07:33.748Z,3.70
2022-08-03T06:10:42.522Z,3.77
2022-08-03T06:13:49.019Z,11.27
2022-08-03T06:17:10.874Z,4.77
2022-08-03T06:20:20.562Z,4.63
2022-08-03T06:23:54.791Z,4.70
2022-08-03T06:26:55.526Z,4.00
2022-08-03T06:30:02.196Z,3.97
2022-08-03T06:33:11.470Z,3.70
2022-08-03T06:36:18.156Z,3.93
2022-08-03T06:39:28.462Z,3.60
2022-08-03T06:42:34.748Z,3.70
2022-08-03T06:45:41.429Z,7.10
2022-08-03T06:48:50.980Z,3.37
2022-08-03T06:52:04.568Z,3.93
2022-08-03T06:55:13.127Z,7.13
2022-08-03T06:58:19.547Z,3.33
2022-08-03T07:01:28.987Z,3.40
2022-08-03T07:04:37.128Z,5.30
2022-08-03T07:07:47.017Z,3.70
2022-08-03T07:10:56.637Z,3.50
2022-08-03T07:14:07.857Z,8.73
2022-08-03T07:17:16.991Z,3.33
2022-08-03T07:20:32.521Z,6.90
2022-08-03T07:23:39.199Z,3.23
2022-08-03T07:26:48.448Z,3.00
2022-08-03T07:29:58.274Z,6.20
2022-08-03T07:33:07.733Z,2.77
2022-08-03T07:36:16.120Z,14.57
2022-08-03T07:39:23.864Z,10.10
2022-08-03T07:42:31.555Z,2.85
2022-08-03T07:45:38.340Z,2.67
2022-08-03T07:48:44.943Z,6.78
2022-08-03T07:52:08.350Z,32.03
2022-08-03T07:55:15.010Z,2.65
2022-08-03T07:58:24.338Z,3.10
2022-08-03T08:01:36.843Z,3.60
2022-08-03T08:04:43.436Z,3.13
2022-08-03T08:07:51.895Z,3.15
2022-08-03T08:10:59.212Z,6.95
2022-08-03T08:14:05.637Z,2.97
2022-08-03T08:17:12.380Z,3.00
2022-08-03T08:20:28.056Z,2.90
2022-08-03T08:23:43.434Z,3.03
2022-08-03T08:26:50.988Z,2.58
2022-08-03T08:30:02.531Z,2.50
2022-08-03T08:33:22.599Z,2.75
2022-08-03T08:36:30.128Z,2.92
2022-08-03T08:39:38.039Z,3.00
2022-08-03T08:42:58.014Z,3.13
2022-08-03T08:46:05.696Z,2.60
2022-08-03T08:49:14.107Z,2.78
2022-08-03T08:52:25.489Z,2.50
2022-08-03T08:55:58.566Z,4.82
2022-08-03T08:59:06.709Z,5.68
2022-08-03T09:02:13.670Z,3.85
2022-08-03T09:05:31.649Z,2.97
2022-08-03T09:08:49.906Z,2.83
2022-08-03T09:12:13.756Z,3.08
2022-08-03T09:16:00.707Z,2.72
2022-08-03T09:19:14.404Z,3.40
2022-08-03T09:22:21.154Z,3.20
2022-08-03T09:25:35.016Z,3.13
2022-08-03T09:28:59.823Z,3.30
2022-08-03T09:32:09.628Z,3.30
2022-08-03T09:35:27.909Z,3.10
2022-08-03T09:38:42.747Z,3.28
2022-08-03T09:41:50.522Z,3.28
2022-08-03T09:44:59.296Z,2.80
2022-08-03T09:48:23.474Z,3.15
2022-08-03T09:51:33.219Z,2.70
2022-08-03T09:54:56.958Z,3.05
2022-08-03T09:58:09.647Z,3.15
2022-08-03T10:01:25.362Z,2.50
2022-08-03T10:04:31.977Z,2.95
2022-08-03T10:07:46.089Z,2.85
2022-08-03T10:10:58.806Z,2.80
2022-08-03T10:14:06.821Z,2.80
2022-08-03T10:17:15.315Z,2.55
2022-08-03T10:20:21.817Z,2.70
2022-08-03T10:23:33.157Z,3.05
2022-08-03T10:26:49.968Z,2.67
2022-08-03T10:30:03.114Z,2.88
2022-08-03T10:33:51.834Z,3.00
2022-08-03T10:36:47.125Z,2.78
2022-08-03T10:39:58.075Z,3.28
2022-08-03T10:43:09.318Z,3.25
2022-08-03T10:46:19.847Z,3.20
2022-08-03T10:49:34.587Z,3.47
2022-08-03T10:52:56.330Z,3.13
2022-08-03T10:56:28.617Z,3.40
2022-08-03T11:00:06.393Z,3.08
2022-08-03T11:03:15.332Z,3.42
2022-08-03T11:06:24.975Z,3.35
2022-08-03T11:09:43.152Z,6.88
2022-08-03T11:13:09.198Z,3.53
2022-08-03T11:16:23.483Z,3.00
2022-08-03T11:19:57.422Z,3.28
2022-08-03T11:23:04.595Z,3.00
2022-08-03T11:26:15.821Z,2.92
2022-08-03T11:29:31.841Z,3.00
2022-08-03T11:33:00.009Z,7.40
2022-08-03T11:36:06.865Z,2.90
2022-08-03T11:39:17.377Z,3.03
2022-08-03T11:42:45.239Z,2.70
2022-08-03T11:46:00.699Z,3.15
2022-08-03T11:49:10.941Z,2.88
2022-08-03T11:52:27.135Z,2.90
2022-08-03T11:55:37.191Z,6.15
2022-08-03T11:58:58.163Z,2.65
2022-08-03T12:02:17.904Z,2.70
2022-08-03T12:05:34.972Z,2.55
2022-08-03T12:08:42.370Z,2.90
2022-08-03T12:11:50.869Z,2.80
2022-08-03T12:15:08.442Z,3.00
2022-08-03T12:18:18.336Z,6.07
2022-08-03T12:21:25.359Z,2.80
2022-08-03T12:24:42.665Z,3.20
2022-08-03T12:27:49.016Z,2.63
2022-08-03T12:30:55.468Z,3.20
2022-08-03T12:34:05.262Z,3.28
2022-08-03T12:37:21.838Z,2.80
2022-08-03T12:40:28.754Z,2.95
2022-08-03T12:43:39.540Z,3.77
2022-08-03T12:46:47.730Z,3.70
2022-08-03T12:49:56.928Z,3.10
2022-08-03T12:53:07.920Z,3.03
2022-08-03T12:56:15.422Z,2.80
2022-08-03T12:59:32.383Z,3.00
2022-08-03T13:03:41.939Z,2.80
2022-08-03T13:07:03.120Z,2.90
2022-08-03T13:10:10.891Z,3.83
2022-08-03T13:13:20.852Z,7.57
2022-08-03T13:16:27.489Z,2.67
2022-08-03T13:19:34.002Z,2.67
2022-08-03T13:22:43.002Z,5.67
2022-08-03T13:25:55.871Z,7.90
2022-08-03T13:29:02.491Z,5.53
2022-08-03T13:32:09.379Z,3.67
2022-08-03T13:35:16.524Z,3.13
2022-08-03T13:38:27.174Z,2.53
2022-08-03T13:41:33.848Z,3.03
2022-08-03T13:44:41.243Z,3.40
2022-08-03T13:47:47.638Z,2.97
2022-08-03T13:50:53.930Z,3.10
2022-08-03T13:54:01.788Z,3.33
2022-08-03T13:58:03.079Z,3.20
2022-08-03T14:00:34.613Z,3.93
2022-08-03T14:03:40.861Z,9.93
2022-08-03T14:06:47.347Z,6.83
2022-08-03T14:09:55.158Z,5.63
2022-08-03T14:13:02.001Z,9.70
2022-08-03T14:16:09.884Z,4.70
2022-08-03T14:19:17.156Z,5.63
2022-08-03T14:22:31.264Z,6.60
2022-08-03T14:25:43.518Z,11.50
2022-08-03T14:28:56.896Z,6.77
2022-08-03T14:32:09.440Z,6.00
2022-08-03T14:35:16.795Z,9.77
2022-08-03T14:38:23.518Z,8.57
2022-08-03T14:41:31.144Z,7.30
2022-08-03T14:44:37.557Z,7.57
2022-08-03T14:50:27.989Z,6.50
2022-08-03T14:51:10.418Z,6.13
2022-08-03T14:54:16.847Z,10.47
2022-08-03T14:57:26.420Z,8.13
2022-08-03T15:00:32.916Z,9.73
2022-08-03T15:03:39.148Z,13.37
2022-08-03T15:06:45.666Z,9.10
2022-08-03T15:09:57.351Z,9.07
2022-08-03T15:13:04.979Z,7.50
2022-08-03T15:16:11.603Z,8.17
2022-08-03T15:20:02.117Z,6.27
2022-08-03T15:22:44.069Z,5.07
2022-08-03T15:26:29.035Z,5.07
2022-08-03T15:30:08.221Z,6.03
2022-08-03T15:32:44.491Z,8.77
2022-08-03T15:35:50.742Z,4.47
2022-08-03T15:38:57.231Z,5.10
2022-08-03T15:42:03.521Z,5.40
2022-08-03T15:45:12.115Z,8.20
2022-08-03T15:48:20.287Z,11.27
2022-08-03T15:51:32.891Z,16.90
2022-08-03T15:54:39.471Z,17.73
2022-08-03T15:59:11.422Z,19.97
2022-08-03T16:01:16.453Z,15.10
2022-08-03T16:04:25.627Z,19.47
2022-08-03T16:07:59.069Z,18.70
2022-08-03T16:11:10.449Z,7.30
2022-08-03T16:14:34.662Z,16.37
2022-08-03T16:17:44.750Z,13.77
2022-08-03T16:20:51.116Z,4.40
2022-08-03T16:23:57.293Z,12.90
2022-08-03T16:27:03.335Z,13.93
2022-08-03T16:30:12.135Z,8.10
2022-08-03T16:33:20.026Z,3.33
2022-08-03T16:36:26.464Z,3.83
2022-08-03T16:39:41.450Z,12.73
2022-08-03T16:42:48.155Z,14.57
2022-08-03T16:45:55.038Z,5.53
2022-08-03T16:49:02.809Z,4.03
2022-08-03T16:52:09.286Z,14.87
2022-08-03T16:55:48.750Z,15.53
2022-08-03T16:58:45.612Z,16.47
2022-08-03T17:01:56.653Z,14.70
2022-08-03T17:05:22.468Z,15.90
2022-08-03T17:08:32.458Z,19.07
2022-08-03T17:11:44.126Z,20.20
2022-08-03T17:14:53.665Z,20.77
2022-08-03T17:18:05.719Z,19.27
2022-08-03T17:21:16.908Z,17.90
2022-08-03T17:24:35.038Z,5.57
2022-08-03T17:28:48.359Z,5.13
2022-08-03T17:31:23.382Z,16.80
2022-08-03T17:34:39.660Z,11.20
2022-08-03T17:37:57.903Z,11.60
2022-08-03T17:41:10.619Z,7.07
2022-08-03T17:44:32.062Z,6.57
2022-08-03T17:47:44.200Z,8.00
2022-08-03T17:50:55.087Z,8.83
2022-08-03T17:54:18.290Z,17.23
2022-08-03T17:57:30.573Z,9.00
2022-08-03T18:02:02.107Z,7.87
2022-08-03T18:04:55.445Z,5.93
2022-08-03T18:08:09.468Z,6.77
2022-08-03T18:11:22.960Z,7.70
2022-08-03T18:14:38.957Z,6.77
2022-08-03T18:17:55.200Z,7.17
2022-08-03T18:21:17.033Z,6.57
2022-08-03T18:24:26.213Z,6.30
2022-08-03T18:27:46.012Z,5.37
2022-08-03T18:30:55.248Z,5.17
2022-08-03T18:34:17.950Z,12.67
2022-08-03T18:37:31.484Z,13.10
2022-08-03T18:40:57.770Z,7.17
2022-08-03T18:44:09.552Z,6.57
2022-08-03T18:47:54.312Z,6.97
2022-08-03T18:51:07.120Z,26.83
2022-08-03T18:54:50.987Z,13.97
2022-08-03T18:57:50.184Z,8.70
2022-08-03T19:01:15.454Z,9.07
2022-08-03T19:04:37.383Z,6.60
2022-08-03T19:07:58.397Z,6.20
2022-08-03T19:11:09.724Z,5.67
2022-08-03T19:14:18.976Z,4.77
2022-08-03T19:17:29.292Z,4.67
2022-08-03T19:20:36.100Z,4.60
2022-08-03T19:23:45.790Z,5.67
2022-08-03T19:26:56.005Z,5.70
2022-08-03T19:30:08.209Z,5.47
2022-08-03T19:33:23.331Z,5.73
2022-08-03T19:36:29.700Z,4.93
2022-08-03T19:39:36.395Z,5.17
2022-08-03T19:42:48.122Z,5.73
2022-08-03T19:46:06.234Z,5.30
2022-08-03T19:49:17.271Z,5.17
2022-08-03T19:52:24.473Z,5.43
2022-08-03T19:55:41.035Z,5.77
2022-08-03T19:58:56.931Z,5.07
2022-08-03T20:02:05.827Z,5.33
2022-08-03T20:05:15.296Z,5.47
2022-08-03T20:08:22.212Z,5.90
2022-08-03T20:11:29.030Z,15.83
2022-08-03T20:14:35.323Z,18.00
2022-08-03T20:17:55.366Z,6.33
2022-08-03T20:21:15.346Z,6.83
2022-08-03T20:24:28.112Z,8.53
2022-08-03T20:28:06.677Z,8.57
2022-08-03T20:31:11.984Z,9.13
2022-08-03T20:34:18.699Z,8.30
2022-08-03T20:37:26.286Z,8.80
2022-08-03T20:40:32.412Z,8.27
2022-08-03T20:43:38.741Z,9.30
2022-08-03T20:46:53.378Z,8.17
2022-08-03T20:50:07.569Z,7.53
2022-08-03T20:53:16.133Z,8.03
2022-08-03T20:56:43.025Z,6.60
2022-08-03T20:59:55.906Z,7.73
2022-08-03T21:03:02.162Z,7.03
2022-08-03T21:06:11.544Z,7.07
2022-08-03T21:09:40.070Z,6.63
2022-08-03T21:12:53.127Z,6.90
2022-08-03T21:16:12.775Z,6.80
2022-08-03T21:19:23.404Z,8.37
2022-08-03T21:22:34.228Z,6.40
2022-08-03T21:25:44.676Z,5.87
2022-08-03T21:28:53.460Z,5.37
2022-08-03T21:32:02.195Z,6.17
2022-08-03T21:35:11.701Z,7.47
2022-08-03T21:38:20.791Z,7.23
2022-08-03T21:41:39.199Z,6.87
2022-08-03T21:44:45.441Z,6.63
2022-08-03T21:47:51.492Z,7.23
2022-08-03T21:50:58.110Z,6.80
2022-08-03T21:54:05.044Z,6.50
2022-08-03T21:57:19.120Z,6.60
2022-08-03T22:00:25.898Z,14.30
2022-08-03T22:03:32.661Z,5.73
2022-08-03T22:06:59.145Z,6.40
2022-08-03T22:10:07.761Z,5.87
2022-08-03T22:13:20.625Z,6.50
2022-08-03T22:16:42.588Z,5.67
2022-08-03T22:19:49.740Z,6.77
2022-08-03T22:22:57.885Z,6.90
2022-08-03T22:26:05.647Z,7.70
2022-08-03T22:29:13.403Z,7.80
2022-08-03T22:32:20.081Z,10.63
2022-08-03T22:35:28.548Z,7.77
2022-08-03T22:38:35.168Z,8.23
2022-08-03T22:41:41.389Z,14.53
2022-08-03T22:44:51.198Z,7.80
2022-08-03T22:47:59.133Z,8.47
2022-08-03T22:51:06.631Z,8.53
2022-08-03T22:54:13.448Z,7.80
2022-08-03T22:57:23.007Z,7.00
2022-08-03T23:00:30.734Z,7.30
2022-08-03T23:04:00.986Z,7.20
2022-08-03T23:07:09.389Z,8.87
2022-08-03T23:10:16.799Z,9.53
2022-08-03T23:13:26.409Z,7.33
2022-08-03T23:16:39.477Z,9.77
2022-08-03T23:19:46.309Z,9.03
2022-08-03T23:22:52.996Z,16.00
2022-08-03T23:26:00.619Z,8.47
2022-08-03T23:29:06.587Z,7.73
2022-08-03T23:32:14.694Z,11.50
2022-08-03T23:36:28.529Z,7.80
2022-08-03T23:39:05.480Z,8.60
2022-08-03T23:42:12.628Z,8.27
2022-08-03T23:45:20.651Z,7.97
2022-08-03T23:48:29.204Z,7.90
2022-08-03T23:51:43.660Z,7.33
2022-08-03T23:55:01.279Z,9.63
2022-08-03T23:58:20.038Z,6.97
